South Starksboro, Vermont
Current Conditions -  °F | °C
As of 6:55 PM on Monday 20 Oct 2014 (Local Time) from K6B0 Reporting Station
Overcast Overcast  
Wind Chill: 49°   Ceiling: 8500
Heat Index: 49°   Visibility: 10mi
Dew Point: 37°   Wind: 3mph
Humidity: 63%   Direction: 150°SSE
Pressure: 29.92"   Gusts: NA
Location:  44.2287°N, 72.9928°W
Report Text: K6B0 202255Z AUTO 15003KT 10SM SCT075 OVC085 10/03 A2992 RMK AO2 T00950027
Loading
Personal Weather Stations






























Interactive Weather Map
Tropical Storm Tracking
New forecast layout! Learn more

10-Day Weather Forecast

Advertisements
Track Severe Weather on mobile